createdAt,value
2018-11-11T00:00:18.333Z,27.63
2018-11-11T00:05:20.914Z,27.00
2018-11-11T00:10:23.222Z,23.97
2018-11-11T00:15:25.574Z,25.57
2018-11-11T00:20:27.860Z,23.47
2018-11-11T00:25:30.124Z,22.33
2018-11-11T00:30:32.360Z,22.30
2018-11-11T00:35:34.634Z,22.13
2018-11-11T00:40:37.647Z,26.80
2018-11-11T00:45:39.886Z,20.50
2018-11-11T00:50:42.166Z,21.60
2018-11-11T00:55:44.408Z,23.00
2018-11-11T01:00:46.640Z,22.07
2018-11-11T01:05:48.949Z,18.37
2018-11-11T01:10:51.177Z,18.97
2018-11-11T01:15:53.418Z,21.33
2018-11-11T01:20:55.804Z,20.53
2018-11-11T01:25:58.045Z,20.47
2018-11-11T01:31:00.315Z,19.98
2018-11-11T01:36:02.620Z,19.47
2018-11-11T01:41:05.208Z,20.50
2018-11-11T01:46:07.572Z,18.17
2018-11-11T01:51:09.855Z,20.20
2018-11-11T01:56:12.100Z,18.63
2018-11-11T02:01:14.345Z,21.47
2018-11-11T02:06:16.597Z,19.47
2018-11-11T02:11:18.855Z,20.03
2018-11-11T02:16:21.110Z,20.80
2018-11-11T02:21:23.390Z,19.57
2018-11-11T02:26:25.632Z,19.07
2018-11-11T02:31:27.942Z,22.97
2018-11-11T02:36:30.181Z,20.27
2018-11-11T02:41:32.453Z,20.50
2018-11-11T02:46:34.735Z,20.03
2018-11-11T02:51:37.039Z,21.13
2018-11-11T02:56:39.244Z,23.33
2018-11-11T03:01:41.472Z,22.30
2018-11-11T03:06:43.701Z,22.20
2018-11-11T03:11:45.917Z,26.70
2018-11-11T03:16:48.128Z,24.70
2018-11-11T03:21:50.395Z,27.00
2018-11-11T03:26:52.647Z,24.73
2018-11-11T03:31:54.935Z,24.23
2018-11-11T03:36:57.139Z,26.13
2018-11-11T03:41:59.679Z,25.47
2018-11-11T03:47:01.902Z,26.87
2018-11-11T03:52:04.525Z,24.90
2018-11-11T03:57:06.745Z,25.97
2018-11-11T04:02:09.009Z,23.90
2018-11-11T04:07:11.275Z,23.40
2018-11-11T04:12:13.584Z,25.83
2018-11-11T04:17:15.886Z,25.73
2018-11-11T04:22:19.261Z,30.10
2018-11-11T04:27:21.541Z,26.33
2018-11-11T04:32:23.846Z,26.07
2018-11-11T04:37:26.180Z,27.53
2018-11-11T04:42:28.492Z,24.87
2018-11-11T04:47:30.798Z,26.13
2018-11-11T04:52:33.129Z,26.97
2018-11-11T04:57:35.428Z,27.30
2018-11-11T05:02:37.742Z,26.77
2018-11-11T05:07:40.196Z,28.53
2018-11-11T05:12:42.477Z,29.10
2018-11-11T05:17:44.845Z,27.00
2018-11-11T05:22:47.599Z,28.30
2018-11-11T05:27:49.904Z,30.73
2018-11-11T05:32:52.190Z,28.07
2018-11-11T05:37:55.502Z,30.50
2018-11-11T05:42:58.510Z,32.43
2018-11-11T05:48:00.862Z,31.77
2018-11-11T05:53:03.222Z,31.23
2018-11-11T05:58:05.691Z,32.27
2018-11-11T06:03:07.994Z,29.17
2018-11-11T06:08:10.306Z,30.07
2018-11-11T06:13:12.589Z,32.90
2018-11-11T06:18:14.862Z,35.80
2018-11-11T06:23:17.269Z,30.40
2018-11-11T06:28:19.565Z,32.20
2018-11-11T06:33:21.848Z,32.27
2018-11-11T06:38:24.127Z,35.13
2018-11-11T06:43:26.421Z,35.73
2018-11-11T06:48:28.716Z,29.67
2018-11-11T06:53:31.074Z,31.77
2018-11-11T06:58:33.388Z,33.10
2018-11-11T07:03:51.189Z,30.53
2018-11-11T07:08:53.518Z,30.10
2018-11-11T07:13:55.887Z,29.27
2018-11-11T07:19:00.652Z,28.57
2018-11-11T07:24:03.335Z,27.40
2018-11-11T07:29:06.375Z,27.70
2018-11-11T07:34:08.718Z,28.73
2018-11-11T07:39:12.730Z,28.77
2018-11-11T07:44:15.142Z,25.20
2018-11-11T07:49:17.702Z,26.00
2018-11-11T07:54:20.106Z,29.07
2018-11-11T07:59:22.534Z,27.53
2018-11-11T08:04:24.902Z,26.47
2018-11-11T08:09:27.283Z,27.10
2018-11-11T08:14:29.769Z,29.13
2018-11-11T08:19:32.084Z,29.27
2018-11-11T08:24:34.464Z,26.42
2018-11-11T08:29:36.830Z,26.97
2018-11-11T08:34:40.165Z,26.60
2018-11-11T08:39:42.450Z,27.30
2018-11-11T08:44:44.737Z,23.90
2018-11-11T08:49:47.424Z,24.93
2018-11-11T08:54:49.787Z,23.60
2018-11-11T08:59:52.077Z,26.57
2018-11-11T09:04:54.483Z,22.60
2018-11-11T09:09:56.858Z,24.60
2018-11-11T09:14:59.269Z,22.53
2018-11-11T09:20:01.711Z,25.20
2018-11-11T09:25:04.873Z,25.93
2018-11-11T09:30:09.166Z,26.00
2018-11-11T09:35:11.654Z,25.87
2018-11-11T09:40:14.093Z,25.77
2018-11-11T09:45:16.478Z,25.83
2018-11-11T09:50:18.775Z,25.90
2018-11-11T09:55:21.190Z,31.23
2018-11-11T10:00:23.772Z,29.82
2018-11-11T10:05:31.749Z,25.40
2018-11-11T10:10:42.487Z,26.97
2018-11-11T10:16:53.518Z,25.27
2018-11-11T10:24:04.567Z,22.55
2018-11-11T10:29:13.972Z,27.30
2018-11-11T10:34:21.664Z,25.57
2018-11-11T10:39:30.180Z,19.48
2018-11-11T10:44:41.696Z,16.25
2018-11-11T10:49:54.008Z,15.25
2018-11-11T10:54:56.321Z,14.90
2018-11-11T10:59:58.758Z,13.25
2018-11-11T11:05:06.855Z,11.00
2018-11-11T11:10:09.285Z,11.75
2018-11-11T11:15:11.626Z,11.55
2018-11-11T11:20:14.059Z,9.93
2018-11-11T11:25:16.449Z,7.45
2018-11-11T11:30:18.816Z,7.40
2018-11-11T11:35:21.218Z,8.58
2018-11-11T11:40:23.533Z,5.95
2018-11-11T11:45:25.949Z,6.40
2018-11-11T11:50:28.446Z,4.78
2018-11-11T11:55:30.699Z,5.70
2018-11-11T12:00:33.151Z,5.12
2018-11-11T12:05:35.480Z,5.95
2018-11-11T12:10:37.839Z,5.92
2018-11-11T12:15:40.874Z,6.22
2018-11-11T12:20:43.258Z,4.00
2018-11-11T12:25:45.610Z,6.20
2018-11-11T12:30:48.070Z,4.35
2018-11-11T12:35:50.359Z,4.58
2018-11-11T12:40:52.676Z,4.72
2018-11-11T12:45:55.594Z,3.98
2018-11-11T12:50:58.425Z,4.55
2018-11-11T12:56:00.720Z,4.45
2018-11-11T13:01:03.104Z,4.80
2018-11-11T13:06:05.485Z,4.65
2018-11-11T13:11:08.253Z,4.42
2018-11-11T13:16:10.974Z,5.70
2018-11-11T13:21:14.266Z,3.67
2018-11-11T13:26:17.286Z,4.17
2018-11-11T13:31:19.736Z,4.30
2018-11-11T13:36:22.115Z,3.75
2018-11-11T13:41:25.010Z,3.90
2018-11-11T13:46:29.273Z,3.98
2018-11-11T13:51:31.525Z,4.40
2018-11-11T13:56:33.832Z,3.77
2018-11-11T14:01:37.545Z,3.85
2018-11-11T14:06:39.894Z,3.62
2018-11-11T14:11:42.225Z,3.83
2018-11-11T14:16:44.604Z,3.47
2018-11-11T14:21:47.009Z,4.87
2018-11-11T14:26:49.494Z,4.20
2018-11-11T14:31:51.867Z,5.08
2018-11-11T14:36:54.424Z,6.87
2018-11-11T14:41:56.752Z,6.45
2018-11-11T14:46:59.056Z,7.62
2018-11-11T14:52:01.525Z,6.42
2018-11-11T14:57:03.856Z,9.48
2018-11-11T15:02:06.352Z,8.23
2018-11-11T15:07:09.114Z,8.65
2018-11-11T15:12:11.481Z,7.60
2018-11-11T15:17:13.893Z,7.62
2018-11-11T15:22:16.258Z,7.87
2018-11-11T15:27:18.567Z,8.78
2018-11-11T15:32:21.049Z,6.70
2018-11-11T15:37:23.344Z,7.72
2018-11-11T15:42:25.917Z,9.05
2018-11-11T15:47:28.206Z,8.15
2018-11-11T15:52:30.604Z,7.80
2018-11-11T15:57:32.914Z,7.85
2018-11-11T16:02:35.318Z,8.70
2018-11-11T16:07:38.349Z,7.58
2018-11-11T16:12:40.869Z,8.20
2018-11-11T16:17:44.045Z,11.03
2018-11-11T16:22:47.661Z,9.73
2018-11-11T16:27:50.180Z,10.93
2018-11-11T16:32:53.106Z,9.83
2018-11-11T16:37:55.672Z,10.45
2018-11-11T16:42:58.589Z,9.70
2018-11-11T16:48:01.013Z,11.22
2018-11-11T16:53:05.536Z,11.18
2018-11-11T16:58:07.822Z,10.32
2018-11-11T17:03:10.865Z,8.65
2018-11-11T17:08:13.193Z,11.33
2018-11-11T17:13:15.491Z,11.53
2018-11-11T17:18:17.808Z,12.00
2018-11-11T17:23:20.293Z,15.58
2018-11-11T17:28:23.754Z,12.88
2018-11-11T17:33:26.081Z,14.78
2018-11-11T17:38:28.485Z,14.45
2018-11-11T17:43:31.520Z,13.28
2018-11-11T17:48:33.853Z,13.22
2018-11-11T17:53:36.162Z,11.95
2018-11-11T17:58:38.474Z,12.28
2018-11-11T18:03:40.908Z,14.23
2018-11-11T18:08:43.230Z,12.80
2018-11-11T18:13:45.556Z,14.28
2018-11-11T18:18:47.890Z,15.45
2018-11-11T18:23:50.417Z,14.00
2018-11-11T18:28:52.726Z,12.00
2018-11-11T18:33:55.161Z,13.85
2018-11-11T18:38:57.492Z,14.18
2018-11-11T18:43:59.981Z,13.20
2018-11-11T18:49:02.298Z,13.43
2018-11-11T18:54:04.663Z,14.03
2018-11-11T18:59:07.193Z,13.03
2018-11-11T19:04:09.704Z,14.65
2018-11-11T19:09:14.481Z,13.40
2018-11-11T19:14:16.837Z,15.40
2018-11-11T19:19:19.301Z,14.13
2018-11-11T19:24:21.652Z,14.10
2018-11-11T19:29:24.005Z,13.35
2018-11-11T19:34:26.354Z,12.65
2018-11-11T19:39:28.745Z,13.43
2018-11-11T19:44:31.026Z,16.15
2018-11-11T19:49:33.430Z,14.63
2018-11-11T19:54:35.717Z,15.75
2018-11-11T19:59:38.100Z,13.93
2018-11-11T20:04:40.496Z,16.97
2018-11-11T20:09:42.775Z,13.78
2018-11-11T20:14:45.170Z,14.93
2018-11-11T20:19:47.466Z,14.50
2018-11-11T20:24:49.745Z,15.45
2018-11-11T20:29:52.127Z,16.40
2018-11-11T20:34:54.571Z,16.93
2018-11-11T20:39:57.054Z,18.32
2018-11-11T20:44:59.329Z,16.45
2018-11-11T20:50:01.751Z,19.23
2018-11-11T20:55:05.336Z,19.53
2018-11-11T21:00:09.677Z,16.20
2018-11-11T21:05:13.434Z,18.87
2018-11-11T21:10:20.177Z,17.10
2018-11-11T21:15:23.726Z,19.98
2018-11-11T21:20:27.406Z,18.42
2018-11-11T21:25:29.799Z,20.30
2018-11-11T21:30:32.656Z,18.42
2018-11-11T21:35:35.050Z,17.67
2018-11-11T21:40:37.345Z,17.60
2018-11-11T21:45:39.758Z,18.17
2018-11-11T21:50:42.061Z,22.85
2018-11-11T21:55:44.351Z,18.03
2018-11-11T22:00:46.701Z,19.82
2018-11-11T22:05:49.084Z,19.00
2018-11-11T22:10:51.946Z,16.60
2018-11-11T22:15:54.268Z,18.02
2018-11-11T22:20:56.576Z,19.07
2018-11-11T22:25:58.950Z,17.35
2018-11-11T22:31:01.241Z,18.07
2018-11-11T22:36:03.622Z,21.25
2018-11-11T22:41:05.921Z,18.25
2018-11-11T22:46:08.294Z,19.73
2018-11-11T22:51:10.609Z,19.07
2018-11-11T22:56:12.925Z,17.60
2018-11-11T23:01:21.219Z,17.20
2018-11-11T23:06:23.628Z,19.60
2018-11-11T23:11:25.981Z,17.37
2018-11-11T23:16:28.266Z,16.63
2018-11-11T23:21:30.576Z,16.12
2018-11-11T23:26:32.893Z,19.92
2018-11-11T23:31:35.222Z,16.62
2018-11-11T23:36:37.685Z,15.70
2018-11-11T23:41:39.990Z,16.05
2018-11-11T23:46:42.390Z,16.55
2018-11-11T23:51:44.684Z,19.65
2018-11-11T23:56:46.986Z,16.50
